sensor_id;sensor_type;location;lat;lon;timestamp;temperature;humidity
30148;DHT22;16960;49.404;8.248;2023-09-19T00:00:25;25.30;53.40
30148;DHT22;16960;49.404;8.248;2023-09-19T00:02:53;25.30;53.40
30148;DHT22;16960;49.404;8.248;2023-09-19T00:05:26;25.30;53.40
30148;DHT22;16960;49.404;8.248;2023-09-19T00:07:55;25.30;53.50
30148;DHT22;16960;49.404;8.248;2023-09-19T00:10:24;25.30;53.60
30148;DHT22;16960;49.404;8.248;2023-09-19T00:12:53;25.30;53.60
30148;DHT22;16960;49.404;8.248;2023-09-19T00:15:21;25.20;53.60
30148;DHT22;16960;49.404;8.248;2023-09-19T00:17:48;25.30;53.60
30148;DHT22;16960;49.404;8.248;2023-09-19T00:20:18;25.20;53.60
30148;DHT22;16960;49.404;8.248;2023-09-19T00:22:50;25.30;53.60
30148;DHT22;16960;49.404;8.248;2023-09-19T00:25:17;25.20;53.60
30148;DHT22;16960;49.404;8.248;2023-09-19T00:27:44;25.20;53.60
30148;DHT22;16960;49.404;8.248;2023-09-19T00:30:15;25.20;53.50
30148;DHT22;16960;49.404;8.248;2023-09-19T00:32:45;25.30;53.50
30148;DHT22;16960;49.404;8.248;2023-09-19T00:35:13;25.20;53.50
30148;DHT22;16960;49.404;8.248;2023-09-19T00:37:40;25.20;53.50
30148;DHT22;16960;49.404;8.248;2023-09-19T00:40:10;25.20;53.60
30148;DHT22;16960;49.404;8.248;2023-09-19T00:42:38;25.20;53.50
30148;DHT22;16960;49.404;8.248;2023-09-19T00:45:07;25.20;53.50
30148;DHT22;16960;49.404;8.248;2023-09-19T00:47:37;25.20;53.50
30148;DHT22;16960;49.404;8.248;2023-09-19T00:50:05;25.20;53.50
30148;DHT22;16960;49.404;8.248;2023-09-19T00:52:33;25.20;53.50
30148;DHT22;16960;49.404;8.248;2023-09-19T00:55:02;25.20;53.60
30148;DHT22;16960;49.404;8.248;2023-09-19T00:57:32;25.20;53.60
30148;DHT22;16960;49.404;8.248;2023-09-19T01:00:00;25.20;53.60
30148;DHT22;16960;49.404;8.248;2023-09-19T01:02:31;25.20;53.70
30148;DHT22;16960;49.404;8.248;2023-09-19T01:04:58;25.20;53.70
30148;DHT22;16960;49.404;8.248;2023-09-19T01:07:25;25.20;53.70
30148;DHT22;16960;49.404;8.248;2023-09-19T01:09:55;25.20;53.60
30148;DHT22;16960;49.404;8.248;2023-09-19T01:12:30;25.20;54.30
30148;DHT22;16960;49.404;8.248;2023-09-19T01:15:06;25.20;53.60
30148;DHT22;16960;49.404;8.248;2023-09-19T01:17:43;25.20;53.60
30148;DHT22;16960;49.404;8.248;2023-09-19T01:20:20;25.20;53.60
30148;DHT22;16960;49.404;8.248;2023-09-19T01:23:06;25.20;53.70
30148;DHT22;16960;49.404;8.248;2023-09-19T01:26:05;25.20;53.70
30148;DHT22;16960;49.404;8.248;2023-09-19T01:28:43;25.20;53.70
30148;DHT22;16960;49.404;8.248;2023-09-19T01:31:15;25.20;53.70
30148;DHT22;16960;49.404;8.248;2023-09-19T01:33:55;25.20;53.70
30148;DHT22;16960;49.404;8.248;2023-09-19T01:36:28;25.10;53.70
30148;DHT22;16960;49.404;8.248;2023-09-19T01:38:57;25.20;53.70
30148;DHT22;16960;49.404;8.248;2023-09-19T01:41:45;25.20;53.70
30148;DHT22;16960;49.404;8.248;2023-09-19T01:44:19;25.10;53.70
30148;DHT22;16960;49.404;8.248;2023-09-19T01:46:50;25.10;54.50
30148;DHT22;16960;49.404;8.248;2023-09-19T01:49:25;25.10;53.60
30148;DHT22;16960;49.404;8.248;2023-09-19T01:51:59;25.10;53.60
30148;DHT22;16960;49.404;8.248;2023-09-19T01:54:32;25.10;53.60
30148;DHT22;16960;49.404;8.248;2023-09-19T01:57:03;25.10;53.60
30148;DHT22;16960;49.404;8.248;2023-09-19T01:59:40;25.10;53.60
30148;DHT22;16960;49.404;8.248;2023-09-19T02:02:10;25.10;53.60
30148;DHT22;16960;49.404;8.248;2023-09-19T02:04:38;25.10;53.60
30148;DHT22;16960;49.404;8.248;2023-09-19T02:07:05;25.10;53.70
30148;DHT22;16960;49.404;8.248;2023-09-19T02:09:34;25.10;53.60
30148;DHT22;16960;49.404;8.248;2023-09-19T02:12:01;25.10;53.70
30148;DHT22;16960;49.404;8.248;2023-09-19T02:14:30;25.10;53.60
30148;DHT22;16960;49.404;8.248;2023-09-19T02:16:57;25.10;53.70
30148;DHT22;16960;49.404;8.248;2023-09-19T02:19:27;25.10;53.60
30148;DHT22;16960;49.404;8.248;2023-09-19T02:21:55;25.10;53.70
30148;DHT22;16960;49.404;8.248;2023-09-19T02:24:22;25.10;53.70
30148;DHT22;16960;49.404;8.248;2023-09-19T02:26:49;25.10;53.60
30148;DHT22;16960;49.404;8.248;2023-09-19T02:29:17;25.10;53.70
30148;DHT22;16960;49.404;8.248;2023-09-19T02:31:44;25.10;53.70
30148;DHT22;16960;49.404;8.248;2023-09-19T02:34:12;25.10;53.60
30148;DHT22;16960;49.404;8.248;2023-09-19T02:36:40;25.10;53.60
30148;DHT22;16960;49.404;8.248;2023-09-19T02:39:09;25.10;53.60
30148;DHT22;16960;49.404;8.248;2023-09-19T02:41:36;25.10;53.60
30148;DHT22;16960;49.404;8.248;2023-09-19T02:44:04;25.00;53.60
30148;DHT22;16960;49.404;8.248;2023-09-19T02:46:33;25.10;53.60
30148;DHT22;16960;49.404;8.248;2023-09-19T02:49:03;25.10;53.50
30148;DHT22;16960;49.404;8.248;2023-09-19T02:51:30;25.10;53.50
30148;DHT22;16960;49.404;8.248;2023-09-19T02:54:00;25.10;53.50
30148;DHT22;16960;49.404;8.248;2023-09-19T02:56:28;25.10;53.40
30148;DHT22;16960;49.404;8.248;2023-09-19T02:58:56;25.00;53.40
30148;DHT22;16960;49.404;8.248;2023-09-19T03:01:23;25.00;53.40
30148;DHT22;16960;49.404;8.248;2023-09-19T03:03:50;25.00;53.40
30148;DHT22;16960;49.404;8.248;2023-09-19T03:06:17;25.00;53.30
30148;DHT22;16960;49.404;8.248;2023-09-19T03:08:45;25.00;53.30
30148;DHT22;16960;49.404;8.248;2023-09-19T03:11:16;25.00;53.30
30148;DHT22;16960;49.404;8.248;2023-09-19T03:13:51;25.00;53.40
30148;DHT22;16960;49.404;8.248;2023-09-19T03:16:18;25.00;53.40
30148;DHT22;16960;49.404;8.248;2023-09-19T03:18:47;25.00;53.40
30148;DHT22;16960;49.404;8.248;2023-09-19T03:21:14;25.00;53.40
30148;DHT22;16960;49.404;8.248;2023-09-19T03:23:42;25.00;53.40
30148;DHT22;16960;49.404;8.248;2023-09-19T03:26:11;25.00;53.50
30148;DHT22;16960;49.404;8.248;2023-09-19T03:28:40;25.00;53.50
30148;DHT22;16960;49.404;8.248;2023-09-19T03:31:08;25.00;53.50
30148;DHT22;16960;49.404;8.248;2023-09-19T03:33:35;25.00;53.40
30148;DHT22;16960;49.404;8.248;2023-09-19T03:36:03;25.00;53.30
30148;DHT22;16960;49.404;8.248;2023-09-19T03:38:31;25.00;53.30
30148;DHT22;16960;49.404;8.248;2023-09-19T03:40:59;25.00;53.30
30148;DHT22;16960;49.404;8.248;2023-09-19T03:43:26;25.00;53.20
30148;DHT22;16960;49.404;8.248;2023-09-19T03:45:55;25.00;53.20
30148;DHT22;16960;49.404;8.248;2023-09-19T03:48:22;24.90;53.10
30148;DHT22;16960;49.404;8.248;2023-09-19T03:50:49;24.90;53.10
30148;DHT22;16960;49.404;8.248;2023-09-19T03:53:16;24.90;53.20
30148;DHT22;16960;49.404;8.248;2023-09-19T03:55:45;24.90;53.10
30148;DHT22;16960;49.404;8.248;2023-09-19T03:58:12;24.90;53.10
30148;DHT22;16960;49.404;8.248;2023-09-19T04:00:39;24.90;53.10
30148;DHT22;16960;49.404;8.248;2023-09-19T04:03:07;24.90;53.10
30148;DHT22;16960;49.404;8.248;2023-09-19T04:05:36;24.90;53.10
30148;DHT22;16960;49.404;8.248;2023-09-19T04:08:04;24.90;53.10
30148;DHT22;16960;49.404;8.248;2023-09-19T04:10:31;24.90;53.10
30148;DHT22;16960;49.404;8.248;2023-09-19T04:12:58;24.90;53.10
30148;DHT22;16960;49.404;8.248;2023-09-19T04:15:25;24.90;53.20
30148;DHT22;16960;49.404;8.248;2023-09-19T04:17:52;24.80;53.00
30148;DHT22;16960;49.404;8.248;2023-09-19T04:20:21;24.80;53.10
30148;DHT22;16960;49.404;8.248;2023-09-19T04:22:51;24.80;53.10
30148;DHT22;16960;49.404;8.248;2023-09-19T04:25:18;24.80;53.20
30148;DHT22;16960;49.404;8.248;2023-09-19T04:27:46;24.80;53.20
30148;DHT22;16960;49.404;8.248;2023-09-19T04:30:13;24.90;53.30
30148;DHT22;16960;49.404;8.248;2023-09-19T04:32:40;24.80;53.20
30148;DHT22;16960;49.404;8.248;2023-09-19T04:35:08;24.80;53.20
30148;DHT22;16960;49.404;8.248;2023-09-19T04:37:38;24.80;53.30
30148;DHT22;16960;49.404;8.248;2023-09-19T04:40:07;24.80;53.30
30148;DHT22;16960;49.404;8.248;2023-09-19T04:42:39;24.80;53.30
30148;DHT22;16960;49.404;8.248;2023-09-19T04:45:07;24.80;53.30
30148;DHT22;16960;49.404;8.248;2023-09-19T04:47:35;24.80;53.30
30148;DHT22;16960;49.404;8.248;2023-09-19T04:50:08;24.80;53.30
30148;DHT22;16960;49.404;8.248;2023-09-19T04:52:40;24.80;53.30
30148;DHT22;16960;49.404;8.248;2023-09-19T04:55:10;24.80;53.30
30148;DHT22;16960;49.404;8.248;2023-09-19T04:57:43;24.70;53.20
30148;DHT22;16960;49.404;8.248;2023-09-19T05:00:12;24.80;53.20
30148;DHT22;16960;49.404;8.248;2023-09-19T05:02:40;24.70;53.30
30148;DHT22;16960;49.404;8.248;2023-09-19T05:05:07;24.70;53.20
30148;DHT22;16960;49.404;8.248;2023-09-19T05:07:35;24.70;53.20
30148;DHT22;16960;49.404;8.248;2023-09-19T05:10:05;24.70;53.90
30148;DHT22;16960;49.404;8.248;2023-09-19T05:12:33;24.70;53.30
30148;DHT22;16960;49.404;8.248;2023-09-19T05:15:01;24.70;53.20
30148;DHT22;16960;49.404;8.248;2023-09-19T05:17:29;24.70;53.20
30148;DHT22;16960;49.404;8.248;2023-09-19T05:19:56;24.70;53.10
30148;DHT22;16960;49.404;8.248;2023-09-19T05:22:23;24.70;53.00
30148;DHT22;16960;49.404;8.248;2023-09-19T05:24:51;24.70;53.00
30148;DHT22;16960;49.404;8.248;2023-09-19T05:27:19;24.70;53.10
30148;DHT22;16960;49.404;8.248;2023-09-19T05:29:47;24.70;53.10
30148;DHT22;16960;49.404;8.248;2023-09-19T05:32:14;24.60;53.00
30148;DHT22;16960;49.404;8.248;2023-09-19T05:34:41;24.70;53.10
30148;DHT22;16960;49.404;8.248;2023-09-19T05:37:08;24.70;53.10
30148;DHT22;16960;49.404;8.248;2023-09-19T05:39:35;24.70;53.10
30148;DHT22;16960;49.404;8.248;2023-09-19T05:42:03;24.70;53.20
30148;DHT22;16960;49.404;8.248;2023-09-19T05:44:31;24.70;53.20
30148;DHT22;16960;49.404;8.248;2023-09-19T05:46:58;24.70;53.20
30148;DHT22;16960;49.404;8.248;2023-09-19T05:49:25;24.70;53.30
30148;DHT22;16960;49.404;8.248;2023-09-19T05:51:53;24.70;53.20
30148;DHT22;16960;49.404;8.248;2023-09-19T05:54:22;24.70;53.10
30148;DHT22;16960;49.404;8.248;2023-09-19T05:56:49;24.70;53.10
30148;DHT22;16960;49.404;8.248;2023-09-19T05:59:19;24.70;53.10
30148;DHT22;16960;49.404;8.248;2023-09-19T06:01:47;24.70;53.10
30148;DHT22;16960;49.404;8.248;2023-09-19T06:04:14;24.70;53.00
30148;DHT22;16960;49.404;8.248;2023-09-19T06:06:41;24.70;53.00
30148;DHT22;16960;49.404;8.248;2023-09-19T06:09:08;24.60;53.70
30148;DHT22;16960;49.404;8.248;2023-09-19T06:11:35;24.60;52.90
30148;DHT22;16960;49.404;8.248;2023-09-19T06:14:02;24.70;53.10
30148;DHT22;16960;49.404;8.248;2023-09-19T06:16:29;24.70;53.20
30148;DHT22;16960;49.404;8.248;2023-09-19T06:18:59;24.70;53.00
30148;DHT22;16960;49.404;8.248;2023-09-19T06:21:27;24.70;53.00
30148;DHT22;16960;49.404;8.248;2023-09-19T06:23:54;24.70;53.00
30148;DHT22;16960;49.404;8.248;2023-09-19T06:26:21;24.80;52.90
30148;DHT22;16960;49.404;8.248;2023-09-19T06:28:49;24.80;52.80
30148;DHT22;16960;49.404;8.248;2023-09-19T06:31:15;24.80;52.80
30148;DHT22;16960;49.404;8.248;2023-09-19T06:33:43;24.90;52.80
30148;DHT22;16960;49.404;8.248;2023-09-19T06:36:11;24.90;52.80
30148;DHT22;16960;49.404;8.248;2023-09-19T06:38:38;25.00;52.60
30148;DHT22;16960;49.404;8.248;2023-09-19T06:41:05;25.00;52.50
30148;DHT22;16960;49.404;8.248;2023-09-19T06:43:33;25.00;52.40
30148;DHT22;16960;49.404;8.248;2023-09-19T06:46:00;25.00;52.30
30148;DHT22;16960;49.404;8.248;2023-09-19T06:48:28;25.10;52.20
30148;DHT22;16960;49.404;8.248;2023-09-19T06:50:56;25.10;52.00
30148;DHT22;16960;49.404;8.248;2023-09-19T06:53:25;25.10;51.90
30148;DHT22;16960;49.404;8.248;2023-09-19T06:55:52;25.10;51.80
30148;DHT22;16960;49.404;8.248;2023-09-19T06:58:19;25.10;51.70
30148;DHT22;16960;49.404;8.248;2023-09-19T07:00:46;25.10;51.60
30148;DHT22;16960;49.404;8.248;2023-09-19T07:03:15;25.10;51.50
30148;DHT22;16960;49.404;8.248;2023-09-19T07:05:44;25.10;51.50
30148;DHT22;16960;49.404;8.248;2023-09-19T07:08:11;25.20;51.40
30148;DHT22;16960;49.404;8.248;2023-09-19T07:10:40;25.10;51.30
30148;DHT22;16960;49.404;8.248;2023-09-19T07:13:08;25.20;51.20
30148;DHT22;16960;49.404;8.248;2023-09-19T07:15:37;25.20;51.20
30148;DHT22;16960;49.404;8.248;2023-09-19T07:18:05;25.20;50.70
30148;DHT22;16960;49.404;8.248;2023-09-19T07:20:32;25.20;50.40
30148;DHT22;16960;49.404;8.248;2023-09-19T07:23:00;25.20;50.10
30148;DHT22;16960;49.404;8.248;2023-09-19T07:25:28;25.20;50.10
30148;DHT22;16960;49.404;8.248;2023-09-19T07:27:56;25.30;49.90
30148;DHT22;16960;49.404;8.248;2023-09-19T07:30:25;25.30;49.80
30148;DHT22;16960;49.404;8.248;2023-09-19T07:32:53;25.30;49.80
30148;DHT22;16960;49.404;8.248;2023-09-19T07:35:20;25.20;48.90
30148;DHT22;16960;49.404;8.248;2023-09-19T07:37:47;25.20;49.00
30148;DHT22;16960;49.404;8.248;2023-09-19T07:40:15;25.20;49.10
30148;DHT22;16960;49.404;8.248;2023-09-19T07:42:42;25.20;49.00
30148;DHT22;16960;49.404;8.248;2023-09-19T07:45:11;25.20;48.90
30148;DHT22;16960;49.404;8.248;2023-09-19T07:47:40;25.20;48.80
30148;DHT22;16960;49.404;8.248;2023-09-19T07:50:07;25.20;48.80
30148;DHT22;16960;49.404;8.248;2023-09-19T07:52:34;25.20;48.70
30148;DHT22;16960;49.404;8.248;2023-09-19T07:55:01;25.20;48.70
30148;DHT22;16960;49.404;8.248;2023-09-19T07:57:34;25.20;48.60
30148;DHT22;16960;49.404;8.248;2023-09-19T08:00:02;25.20;48.50
30148;DHT22;16960;49.404;8.248;2023-09-19T08:02:35;25.30;48.30
30148;DHT22;16960;49.404;8.248;2023-09-19T08:05:04;25.20;48.10
30148;DHT22;16960;49.404;8.248;2023-09-19T08:07:35;25.30;48.80
30148;DHT22;16960;49.404;8.248;2023-09-19T08:10:03;25.30;48.10
30148;DHT22;16960;49.404;8.248;2023-09-19T08:12:30;25.30;48.20
30148;DHT22;16960;49.404;8.248;2023-09-19T08:14:58;25.30;47.90
30148;DHT22;16960;49.404;8.248;2023-09-19T08:17:25;25.30;48.10
30148;DHT22;16960;49.404;8.248;2023-09-19T08:19:53;25.30;48.10
30148;DHT22;16960;49.404;8.248;2023-09-19T08:22:20;25.30;48.10
30148;DHT22;16960;49.404;8.248;2023-09-19T08:24:47;25.30;48.00
30148;DHT22;16960;49.404;8.248;2023-09-19T08:27:14;25.30;47.80
30148;DHT22;16960;49.404;8.248;2023-09-19T08:29:43;25.30;47.80
30148;DHT22;16960;49.404;8.248;2023-09-19T08:32:12;25.30;47.70
30148;DHT22;16960;49.404;8.248;2023-09-19T08:34:38;25.30;47.60
30148;DHT22;16960;49.404;8.248;2023-09-19T08:37:07;25.30;47.50
30148;DHT22;16960;49.404;8.248;2023-09-19T08:39:34;25.30;47.20
30148;DHT22;16960;49.404;8.248;2023-09-19T08:42:03;25.30;47.20
30148;DHT22;16960;49.404;8.248;2023-09-19T08:44:30;25.30;47.20
30148;DHT22;16960;49.404;8.248;2023-09-19T08:47:09;25.30;47.20
30148;DHT22;16960;49.404;8.248;2023-09-19T08:49:43;25.30;46.80
30148;DHT22;16960;49.404;8.248;2023-09-19T08:52:20;25.30;46.80
30148;DHT22;16960;49.404;8.248;2023-09-19T08:54:51;25.30;46.80
30148;DHT22;16960;49.404;8.248;2023-09-19T08:57:19;25.30;47.80
30148;DHT22;16960;49.404;8.248;2023-09-19T08:59:48;25.30;47.00
30148;DHT22;16960;49.404;8.248;2023-09-19T09:02:16;25.30;46.90
30148;DHT22;16960;49.404;8.248;2023-09-19T09:04:45;25.30;46.70
30148;DHT22;16960;49.404;8.248;2023-09-19T09:07:15;25.30;46.80
30148;DHT22;16960;49.404;8.248;2023-09-19T09:09:44;25.30;46.70
30148;DHT22;16960;49.404;8.248;2023-09-19T09:12:13;25.40;46.70
30148;DHT22;16960;49.404;8.248;2023-09-19T09:14:43;25.40;46.50
30148;DHT22;16960;49.404;8.248;2023-09-19T09:17:11;25.40;46.40
30148;DHT22;16960;49.404;8.248;2023-09-19T09:19:38;25.40;46.90
30148;DHT22;16960;49.404;8.248;2023-09-19T09:22:08;25.40;45.80
30148;DHT22;16960;49.404;8.248;2023-09-19T09:24:37;25.40;45.70
30148;DHT22;16960;49.404;8.248;2023-09-19T09:27:06;25.40;45.70
30148;DHT22;16960;49.404;8.248;2023-09-19T09:29:43;25.40;45.70
30148;DHT22;16960;49.404;8.248;2023-09-19T09:32:19;25.40;45.70
30148;DHT22;16960;49.404;8.248;2023-09-19T09:34:49;25.40;45.40
30148;DHT22;16960;49.404;8.248;2023-09-19T09:37:17;25.50;45.30
30148;DHT22;16960;49.404;8.248;2023-09-19T09:39:56;25.50;45.40
30148;DHT22;16960;49.404;8.248;2023-09-19T09:42:29;25.50;45.30
30148;DHT22;16960;49.404;8.248;2023-09-19T09:45:13;25.50;45.20
30148;DHT22;16960;49.404;8.248;2023-09-19T09:47:45;25.50;45.30
30148;DHT22;16960;49.404;8.248;2023-09-19T09:50:25;25.50;45.40
30148;DHT22;16960;49.404;8.248;2023-09-19T09:52:55;25.60;45.40
30148;DHT22;16960;49.404;8.248;2023-09-19T09:55:58;25.50;45.50
30148;DHT22;16960;49.404;8.248;2023-09-19T09:58:25;25.60;45.40
30148;DHT22;16960;49.404;8.248;2023-09-19T10:00:55;25.60;45.40
30148;DHT22;16960;49.404;8.248;2023-09-19T10:03:33;25.60;45.50
30148;DHT22;16960;49.404;8.248;2023-09-19T10:06:06;25.60;45.40
30148;DHT22;16960;49.404;8.248;2023-09-19T10:09:04;25.60;45.40
30148;DHT22;16960;49.404;8.248;2023-09-19T10:11:42;25.60;45.70
30148;DHT22;16960;49.404;8.248;2023-09-19T10:14:15;25.70;45.40
30148;DHT22;16960;49.404;8.248;2023-09-19T10:16:46;25.70;45.30
30148;DHT22;16960;49.404;8.248;2023-09-19T10:19:16;25.70;45.10
30148;DHT22;16960;49.404;8.248;2023-09-19T10:21:48;25.70;45.00
30148;DHT22;16960;49.404;8.248;2023-09-19T10:24:17;25.70;45.60
30148;DHT22;16960;49.404;8.248;2023-09-19T10:26:47;25.80;44.80
30148;DHT22;16960;49.404;8.248;2023-09-19T10:29:17;25.80;44.80
30148;DHT22;16960;49.404;8.248;2023-09-19T10:31:47;25.90;44.70
30148;DHT22;16960;49.404;8.248;2023-09-19T10:34:15;25.80;44.20
30148;DHT22;16960;49.404;8.248;2023-09-19T10:36:44;25.90;43.90
30148;DHT22;16960;49.404;8.248;2023-09-19T10:39:15;26.00;44.00
30148;DHT22;16960;49.404;8.248;2023-09-19T10:41:49;26.00;43.80
30148;DHT22;16960;49.404;8.248;2023-09-19T10:44:23;26.00;43.60
30148;DHT22;16960;49.404;8.248;2023-09-19T10:46:51;26.10;43.20
30148;DHT22;16960;49.404;8.248;2023-09-19T10:49:19;26.10;42.90
30148;DHT22;16960;49.404;8.248;2023-09-19T10:51:48;26.20;42.70
30148;DHT22;16960;49.404;8.248;2023-09-19T10:54:18;26.10;42.50
30148;DHT22;16960;49.404;8.248;2023-09-19T10:56:49;26.20;42.40
30148;DHT22;16960;49.404;8.248;2023-09-19T10:59:19;26.10;42.80
30148;DHT22;16960;49.404;8.248;2023-09-19T11:01:47;26.20;42.80
30148;DHT22;16960;49.404;8.248;2023-09-19T11:04:28;26.10;42.80
30148;DHT22;16960;49.404;8.248;2023-09-19T11:07:03;26.10;42.80
30148;DHT22;16960;49.404;8.248;2023-09-19T11:09:52;26.10;43.20
30148;DHT22;16960;49.404;8.248;2023-09-19T11:12:53;26.10;43.60
30148;DHT22;16960;49.404;8.248;2023-09-19T11:18:55;26.20;43.50
30148;DHT22;16960;49.404;8.248;2023-09-19T11:21:52;26.20;43.70
30148;DHT22;16960;49.404;8.248;2023-09-19T11:24:30;26.20;43.40
30148;DHT22;16960;49.404;8.248;2023-09-19T11:27:12;26.20;43.30
30148;DHT22;16960;49.404;8.248;2023-09-19T11:29:40;26.20;43.40
30148;DHT22;16960;49.404;8.248;2023-09-19T11:32:07;26.20;43.50
30148;DHT22;16960;49.404;8.248;2023-09-19T11:34:39;26.20;43.70
30148;DHT22;16960;49.404;8.248;2023-09-19T11:40:11;26.20;43.70
30148;DHT22;16960;49.404;8.248;2023-09-19T11:42:42;26.20;43.60
30148;DHT22;16960;49.404;8.248;2023-09-19T11:48:14;26.20;43.60
30148;DHT22;16960;49.404;8.248;2023-09-19T11:50:42;26.30;43.20
30148;DHT22;16960;49.404;8.248;2023-09-19T11:53:10;26.30;43.00
30148;DHT22;16960;49.404;8.248;2023-09-19T11:55:38;26.30;43.00
30148;DHT22;16960;49.404;8.248;2023-09-19T11:58:07;26.30;42.70
30148;DHT22;16960;49.404;8.248;2023-09-19T12:00:35;26.30;42.60
30148;DHT22;16960;49.404;8.248;2023-09-19T12:03:08;26.30;42.30
30148;DHT22;16960;49.404;8.248;2023-09-19T12:05:36;26.30;42.30
30148;DHT22;16960;49.404;8.248;2023-09-19T12:08:04;26.40;42.40
30148;DHT22;16960;49.404;8.248;2023-09-19T12:10:33;26.40;42.20
30148;DHT22;16960;49.404;8.248;2023-09-19T12:13:00;26.40;41.80
30148;DHT22;16960;49.404;8.248;2023-09-19T12:15:28;26.40;41.80
30148;DHT22;16960;49.404;8.248;2023-09-19T12:18:00;26.40;41.70
30148;DHT22;16960;49.404;8.248;2023-09-19T12:20:43;26.50;41.40
30148;DHT22;16960;49.404;8.248;2023-09-19T12:23:13;26.50;41.20
30148;DHT22;16960;49.404;8.248;2023-09-19T12:25:44;26.50;42.00
30148;DHT22;16960;49.404;8.248;2023-09-19T12:28:13;26.60;41.30
30148;DHT22;16960;49.404;8.248;2023-09-19T12:30:40;26.60;41.30
30148;DHT22;16960;49.404;8.248;2023-09-19T12:33:17;26.60;42.10
30148;DHT22;16960;49.404;8.248;2023-09-19T12:35:47;26.60;41.40
30148;DHT22;16960;49.404;8.248;2023-09-19T12:38:23;26.60;41.50
30148;DHT22;16960;49.404;8.248;2023-09-19T12:40:51;26.70;41.20
30148;DHT22;16960;49.404;8.248;2023-09-19T12:43:18;26.70;41.40
30148;DHT22;16960;49.404;8.248;2023-09-19T12:45:45;26.80;41.40
30148;DHT22;16960;49.404;8.248;2023-09-19T12:48:24;26.80;41.50
30148;DHT22;16960;49.404;8.248;2023-09-19T12:51:06;26.80;41.80
30148;DHT22;16960;49.404;8.248;2023-09-19T12:53:34;26.80;42.00
30148;DHT22;16960;49.404;8.248;2023-09-19T12:56:05;26.90;42.10
30148;DHT22;16960;49.404;8.248;2023-09-19T12:58:34;26.90;42.20
30148;DHT22;16960;49.404;8.248;2023-09-19T13:01:14;26.90;42.20
30148;DHT22;16960;49.404;8.248;2023-09-19T13:03:41;26.90;42.20
30148;DHT22;16960;49.404;8.248;2023-09-19T13:06:09;26.90;42.10
30148;DHT22;16960;49.404;8.248;2023-09-19T13:08:38;27.00;42.60
30148;DHT22;16960;49.404;8.248;2023-09-19T13:11:10;27.00;42.70
30148;DHT22;16960;49.404;8.248;2023-09-19T13:13:40;27.00;42.70
30148;DHT22;16960;49.404;8.248;2023-09-19T13:16:07;27.00;42.70
30148;DHT22;16960;49.404;8.248;2023-09-19T13:18:48;27.00;42.50
30148;DHT22;16960;49.404;8.248;2023-09-19T13:21:28;27.00;42.60
30148;DHT22;16960;49.404;8.248;2023-09-19T13:24:19;27.00;42.50
30148;DHT22;16960;49.404;8.248;2023-09-19T13:26:46;27.00;42.20
30148;DHT22;16960;49.404;8.248;2023-09-19T13:29:13;27.00;41.80
30148;DHT22;16960;49.404;8.248;2023-09-19T13:31:46;27.00;41.60
30148;DHT22;16960;49.404;8.248;2023-09-19T13:34:13;27.00;41.30
30148;DHT22;16960;49.404;8.248;2023-09-19T13:36:42;27.00;41.20
30148;DHT22;16960;49.404;8.248;2023-09-19T13:39:09;26.90;40.80
30148;DHT22;16960;49.404;8.248;2023-09-19T13:41:38;26.90;40.80
30148;DHT22;16960;49.404;8.248;2023-09-19T13:44:05;27.00;41.20
30148;DHT22;16960;49.404;8.248;2023-09-19T13:46:34;27.00;41.20
30148;DHT22;16960;49.404;8.248;2023-09-19T13:49:01;27.00;41.10
30148;DHT22;16960;49.404;8.248;2023-09-19T13:51:30;27.00;41.10
30148;DHT22;16960;49.404;8.248;2023-09-19T13:53:58;27.00;41.30
30148;DHT22;16960;49.404;8.248;2023-09-19T13:56:26;27.00;41.20
30148;DHT22;16960;49.404;8.248;2023-09-19T13:58:54;27.00;41.40
30148;DHT22;16960;49.404;8.248;2023-09-19T14:01:21;27.00;41.10
30148;DHT22;16960;49.404;8.248;2023-09-19T14:03:47;27.00;41.20
30148;DHT22;16960;49.404;8.248;2023-09-19T14:06:15;27.00;40.80
30148;DHT22;16960;49.404;8.248;2023-09-19T14:08:43;27.10;40.90
30148;DHT22;16960;49.404;8.248;2023-09-19T14:11:14;27.10;40.60
30148;DHT22;16960;49.404;8.248;2023-09-19T14:13:42;27.10;40.70
30148;DHT22;16960;49.404;8.248;2023-09-19T14:16:12;27.10;40.70
30148;DHT22;16960;49.404;8.248;2023-09-19T14:18:39;27.10;40.90
30148;DHT22;16960;49.404;8.248;2023-09-19T14:21:07;27.10;40.70
30148;DHT22;16960;49.404;8.248;2023-09-19T14:23:36;27.10;40.80
30148;DHT22;16960;49.404;8.248;2023-09-19T14:26:04;27.10;40.90
30148;DHT22;16960;49.404;8.248;2023-09-19T14:28:33;27.10;40.90
30148;DHT22;16960;49.404;8.248;2023-09-19T14:31:04;27.10;41.00
30148;DHT22;16960;49.404;8.248;2023-09-19T14:33:31;27.10;41.20
30148;DHT22;16960;49.404;8.248;2023-09-19T14:36:01;27.10;41.00
30148;DHT22;16960;49.404;8.248;2023-09-19T14:38:28;27.10;40.90
30148;DHT22;16960;49.404;8.248;2023-09-19T14:40:59;27.10;40.80
30148;DHT22;16960;49.404;8.248;2023-09-19T14:43:27;27.10;40.80
30148;DHT22;16960;49.404;8.248;2023-09-19T14:45:56;27.10;40.90
30148;DHT22;16960;49.404;8.248;2023-09-19T14:48:24;27.10;40.70
30148;DHT22;16960;49.404;8.248;2023-09-19T14:50:51;27.10;40.50
30148;DHT22;16960;49.404;8.248;2023-09-19T14:53:19;27.10;40.60
30148;DHT22;16960;49.404;8.248;2023-09-19T14:55:46;27.10;40.90
30148;DHT22;16960;49.404;8.248;2023-09-19T14:58:17;27.10;41.00
30148;DHT22;16960;49.404;8.248;2023-09-19T15:00:44;27.10;40.90
30148;DHT22;16960;49.404;8.248;2023-09-19T15:03:13;27.10;40.80
30148;DHT22;16960;49.404;8.248;2023-09-19T15:05:40;27.10;40.70
30148;DHT22;16960;49.404;8.248;2023-09-19T15:08:07;27.10;40.60
30148;DHT22;16960;49.404;8.248;2023-09-19T15:10:34;27.00;40.80
30148;DHT22;16960;49.404;8.248;2023-09-19T15:13:01;27.00;40.80
30148;DHT22;16960;49.404;8.248;2023-09-19T15:15:28;27.00;41.20
30148;DHT22;16960;49.404;8.248;2023-09-19T15:17:55;27.10;41.20
30148;DHT22;16960;49.404;8.248;2023-09-19T15:20:24;27.10;41.10
30148;DHT22;16960;49.404;8.248;2023-09-19T15:22:51;27.00;41.10
30148;DHT22;16960;49.404;8.248;2023-09-19T15:25:18;27.10;41.10
30148;DHT22;16960;49.404;8.248;2023-09-19T15:27:45;27.10;41.30
30148;DHT22;16960;49.404;8.248;2023-09-19T15:30:12;27.10;41.30
30148;DHT22;16960;49.404;8.248;2023-09-19T15:32:40;27.10;41.30
30148;DHT22;16960;49.404;8.248;2023-09-19T15:35:08;27.10;41.10
30148;DHT22;16960;49.404;8.248;2023-09-19T15:37:38;27.10;41.10
30148;DHT22;16960;49.404;8.248;2023-09-19T15:40:07;27.10;41.30
30148;DHT22;16960;49.404;8.248;2023-09-19T15:42:36;27.10;41.40
30148;DHT22;16960;49.404;8.248;2023-09-19T15:45:04;27.10;41.40
30148;DHT22;16960;49.404;8.248;2023-09-19T15:47:35;27.10;41.50
30148;DHT22;16960;49.404;8.248;2023-09-19T15:50:03;27.10;41.40
30148;DHT22;16960;49.404;8.248;2023-09-19T15:52:30;27.10;41.50
30148;DHT22;16960;49.404;8.248;2023-09-19T15:54:59;27.20;41.40